sensor_id;sensor_type;location;lat;lon;timestamp;temperature;humidity
5960;DHT22;3006;50.956;7.002;2022-09-09T00:01:49;19.70;99.90
5960;DHT22;3006;50.956;7.002;2022-09-09T00:04:25;19.60;99.90
5960;DHT22;3006;50.956;7.002;2022-09-09T00:07:09;19.70;99.90
5960;DHT22;3006;50.956;7.002;2022-09-09T00:09:44;19.70;99.90
5960;DHT22;3006;50.956;7.002;2022-09-09T00:12:20;19.70;99.90
5960;DHT22;3006;50.956;7.002;2022-09-09T00:14:53;19.60;99.90
5960;DHT22;3006;50.956;7.002;2022-09-09T00:17:31;19.60;99.90
5960;DHT22;3006;50.956;7.002;2022-09-09T00:20:04;19.60;99.90
5960;DHT22;3006;50.956;7.002;2022-09-09T00:22:33;19.60;99.90
5960;DHT22;3006;50.956;7.002;2022-09-09T00:25:10;19.60;99.90
5960;DHT22;3006;50.956;7.002;2022-09-09T00:27:44;19.50;99.90
5960;DHT22;3006;50.956;7.002;2022-09-09T00:30:15;19.50;99.90
5960;DHT22;3006;50.956;7.002;2022-09-09T00:32:46;19.50;99.90
5960;DHT22;3006;50.956;7.002;2022-09-09T00:35:18;19.50;99.90
5960;DHT22;3006;50.956;7.002;2022-09-09T00:37:52;19.50;99.90
5960;DHT22;3006;50.956;7.002;2022-09-09T00:40:24;19.50;99.90
5960;DHT22;3006;50.956;7.002;2022-09-09T00:43:07;19.50;99.90
5960;DHT22;3006;50.956;7.002;2022-09-09T00:46:05;19.50;99.90
5960;DHT22;3006;50.956;7.002;2022-09-09T00:48:45;19.50;99.90
5960;DHT22;3006;50.956;7.002;2022-09-09T00:51:24;19.50;99.90
5960;DHT22;3006;50.956;7.002;2022-09-09T00:54:13;19.50;99.90
5960;DHT22;3006;50.956;7.002;2022-09-09T00:56:49;19.50;99.90
5960;DHT22;3006;50.956;7.002;2022-09-09T00:59:28;19.50;99.90
5960;DHT22;3006;50.956;7.002;2022-09-09T01:02:08;19.50;99.90
5960;DHT22;3006;50.956;7.002;2022-09-09T01:04:41;19.40;99.90
5960;DHT22;3006;50.956;7.002;2022-09-09T01:07:16;19.40;99.90
5960;DHT22;3006;50.956;7.002;2022-09-09T01:09:52;19.40;99.90
5960;DHT22;3006;50.956;7.002;2022-09-09T01:12:28;19.30;99.90
5960;DHT22;3006;50.956;7.002;2022-09-09T01:15:03;19.30;99.90
5960;DHT22;3006;50.956;7.002;2022-09-09T01:17:51;19.30;99.90
5960;DHT22;3006;50.956;7.002;2022-09-09T01:20:23;19.30;99.90
5960;DHT22;3006;50.956;7.002;2022-09-09T01:23:21;19.30;99.90
5960;DHT22;3006;50.956;7.002;2022-09-09T01:26:28;19.30;99.90
5960;DHT22;3006;50.956;7.002;2022-09-09T01:29:02;19.20;99.90
5960;DHT22;3006;50.956;7.002;2022-09-09T01:31:37;19.20;99.90
5960;DHT22;3006;50.956;7.002;2022-09-09T01:34:10;19.20;99.90
5960;DHT22;3006;50.956;7.002;2022-09-09T01:36:43;19.10;99.90
5960;DHT22;3006;50.956;7.002;2022-09-09T01:39:12;19.10;99.90
5960;DHT22;3006;50.956;7.002;2022-09-09T01:41:43;19.10;99.90
5960;DHT22;3006;50.956;7.002;2022-09-09T01:44:14;19.10;99.90
5960;DHT22;3006;50.956;7.002;2022-09-09T01:46:44;19.10;99.90
5960;DHT22;3006;50.956;7.002;2022-09-09T01:49:16;19.10;99.90
5960;DHT22;3006;50.956;7.002;2022-09-09T01:51:48;19.20;99.90
5960;DHT22;3006;50.956;7.002;2022-09-09T01:54:19;19.10;99.90
5960;DHT22;3006;50.956;7.002;2022-09-09T01:56:58;19.10;99.90
5960;DHT22;3006;50.956;7.002;2022-09-09T01:59:45;19.10;99.90
5960;DHT22;3006;50.956;7.002;2022-09-09T02:02:18;19.10;99.90
5960;DHT22;3006;50.956;7.002;2022-09-09T02:05:07;19.10;99.90
5960;DHT22;3006;50.956;7.002;2022-09-09T02:07:40;19.10;99.90
5960;DHT22;3006;50.956;7.002;2022-09-09T02:10:28;19.00;99.90
5960;DHT22;3006;50.956;7.002;2022-09-09T02:13:11;19.10;99.90
5960;DHT22;3006;50.956;7.002;2022-09-09T02:15:44;19.10;99.90
5960;DHT22;3006;50.956;7.002;2022-09-09T02:18:20;19.10;99.90
5960;DHT22;3006;50.956;7.002;2022-09-09T02:20:51;19.10;99.90
5960;DHT22;3006;50.956;7.002;2022-09-09T02:23:21;19.10;99.90
5960;DHT22;3006;50.956;7.002;2022-09-09T02:25:54;19.10;99.90
5960;DHT22;3006;50.956;7.002;2022-09-09T02:28:28;19.10;99.90
5960;DHT22;3006;50.956;7.002;2022-09-09T02:30:58;19.10;99.90
5960;DHT22;3006;50.956;7.002;2022-09-09T02:33:38;19.10;99.90
5960;DHT22;3006;50.956;7.002;2022-09-09T02:36:09;19.10;99.90
5960;DHT22;3006;50.956;7.002;2022-09-09T02:38:44;19.10;99.90
5960;DHT22;3006;50.956;7.002;2022-09-09T02:41:18;19.10;99.90
5960;DHT22;3006;50.956;7.002;2022-09-09T02:43:50;19.20;99.90
5960;DHT22;3006;50.956;7.002;2022-09-09T02:46:34;19.20;99.90
5960;DHT22;3006;50.956;7.002;2022-09-09T02:49:09;19.10;99.90
5960;DHT22;3006;50.956;7.002;2022-09-09T02:51:46;19.10;99.90
5960;DHT22;3006;50.956;7.002;2022-09-09T02:54:20;19.00;99.90
5960;DHT22;3006;50.956;7.002;2022-09-09T02:56:52;19.00;99.90
5960;DHT22;3006;50.956;7.002;2022-09-09T02:59:29;19.10;99.90
5960;DHT22;3006;50.956;7.002;2022-09-09T03:01:57;19.10;99.90
5960;DHT22;3006;50.956;7.002;2022-09-09T03:04:26;19.10;99.90
5960;DHT22;3006;50.956;7.002;2022-09-09T03:06:56;19.10;99.90
5960;DHT22;3006;50.956;7.002;2022-09-09T03:09:25;19.10;99.90
5960;DHT22;3006;50.956;7.002;2022-09-09T03:11:55;19.00;99.90
5960;DHT22;3006;50.956;7.002;2022-09-09T03:14:25;19.00;99.90
5960;DHT22;3006;50.956;7.002;2022-09-09T03:16:56;19.00;99.90
5960;DHT22;3006;50.956;7.002;2022-09-09T03:19:24;19.00;99.90
5960;DHT22;3006;50.956;7.002;2022-09-09T03:21:52;19.00;99.90
5960;DHT22;3006;50.956;7.002;2022-09-09T03:24:21;19.00;99.90
5960;DHT22;3006;50.956;7.002;2022-09-09T03:26:49;19.10;99.90
5960;DHT22;3006;50.956;7.002;2022-09-09T03:29:17;19.00;99.90
5960;DHT22;3006;50.956;7.002;2022-09-09T03:31:45;19.00;99.90
5960;DHT22;3006;50.956;7.002;2022-09-09T03:34:15;19.00;99.90
5960;DHT22;3006;50.956;7.002;2022-09-09T03:36:43;19.00;99.90
5960;DHT22;3006;50.956;7.002;2022-09-09T03:39:11;19.00;99.90
5960;DHT22;3006;50.956;7.002;2022-09-09T03:41:42;18.90;99.90
5960;DHT22;3006;50.956;7.002;2022-09-09T03:44:12;18.90;99.90
5960;DHT22;3006;50.956;7.002;2022-09-09T03:46:41;18.90;99.90
5960;DHT22;3006;50.956;7.002;2022-09-09T03:49:09;18.90;99.90
5960;DHT22;3006;50.956;7.002;2022-09-09T03:51:39;19.00;99.90
5960;DHT22;3006;50.956;7.002;2022-09-09T03:54:09;19.00;99.90
5960;DHT22;3006;50.956;7.002;2022-09-09T03:56:37;19.00;99.90
5960;DHT22;3006;50.956;7.002;2022-09-09T03:59:09;18.90;99.90
5960;DHT22;3006;50.956;7.002;2022-09-09T04:01:37;19.00;99.90
5960;DHT22;3006;50.956;7.002;2022-09-09T04:04:07;19.00;99.90
5960;DHT22;3006;50.956;7.002;2022-09-09T04:06:36;19.00;99.90
5960;DHT22;3006;50.956;7.002;2022-09-09T04:09:05;18.90;99.90
5960;DHT22;3006;50.956;7.002;2022-09-09T04:11:34;18.90;99.90
5960;DHT22;3006;50.956;7.002;2022-09-09T04:14:02;18.90;99.90
5960;DHT22;3006;50.956;7.002;2022-09-09T04:16:30;18.90;99.90
5960;DHT22;3006;50.956;7.002;2022-09-09T04:18:59;18.90;99.90
5960;DHT22;3006;50.956;7.002;2022-09-09T04:21:28;19.00;99.90
5960;DHT22;3006;50.956;7.002;2022-09-09T04:23:56;18.90;99.90
5960;DHT22;3006;50.956;7.002;2022-09-09T04:26:27;18.90;99.90
5960;DHT22;3006;50.956;7.002;2022-09-09T04:28:55;18.90;99.90
5960;DHT22;3006;50.956;7.002;2022-09-09T04:31:23;18.90;99.90
5960;DHT22;3006;50.956;7.002;2022-09-09T04:33:55;18.90;99.90
5960;DHT22;3006;50.956;7.002;2022-09-09T04:36:24;18.90;99.90
5960;DHT22;3006;50.956;7.002;2022-09-09T04:38:57;19.00;99.90
5960;DHT22;3006;50.956;7.002;2022-09-09T04:41:27;18.90;99.90
5960;DHT22;3006;50.956;7.002;2022-09-09T04:43:55;18.90;99.90
5960;DHT22;3006;50.956;7.002;2022-09-09T04:46:23;18.90;99.90
5960;DHT22;3006;50.956;7.002;2022-09-09T04:48:52;19.00;99.90
5960;DHT22;3006;50.956;7.002;2022-09-09T04:51:22;18.90;99.90
5960;DHT22;3006;50.956;7.002;2022-09-09T04:53:51;18.90;99.90
5960;DHT22;3006;50.956;7.002;2022-09-09T04:56:21;19.00;99.90
5960;DHT22;3006;50.956;7.002;2022-09-09T04:58:56;18.90;99.90
5960;DHT22;3006;50.956;7.002;2022-09-09T05:01:37;18.90;99.90
5960;DHT22;3006;50.956;7.002;2022-09-09T05:04:06;18.90;99.90
5960;DHT22;3006;50.956;7.002;2022-09-09T05:06:35;18.90;99.90
5960;DHT22;3006;50.956;7.002;2022-09-09T05:09:04;18.90;99.90
5960;DHT22;3006;50.956;7.002;2022-09-09T05:11:33;18.90;99.90
5960;DHT22;3006;50.956;7.002;2022-09-09T05:14:12;18.90;99.90
5960;DHT22;3006;50.956;7.002;2022-09-09T05:16:41;18.90;99.90
5960;DHT22;3006;50.956;7.002;2022-09-09T05:19:11;18.80;99.90
5960;DHT22;3006;50.956;7.002;2022-09-09T05:21:44;18.80;99.90
5960;DHT22;3006;50.956;7.002;2022-09-09T05:24:16;18.80;99.90
5960;DHT22;3006;50.956;7.002;2022-09-09T05:26:46;18.70;99.90
5960;DHT22;3006;50.956;7.002;2022-09-09T05:29:16;18.70;99.90
5960;DHT22;3006;50.956;7.002;2022-09-09T05:31:46;18.60;99.90
5960;DHT22;3006;50.956;7.002;2022-09-09T05:34:18;18.60;99.90
5960;DHT22;3006;50.956;7.002;2022-09-09T05:36:46;18.50;99.90
5960;DHT22;3006;50.956;7.002;2022-09-09T05:39:15;18.50;99.90
5960;DHT22;3006;50.956;7.002;2022-09-09T05:41:44;18.40;99.90
5960;DHT22;3006;50.956;7.002;2022-09-09T05:44:12;18.40;99.90
5960;DHT22;3006;50.956;7.002;2022-09-09T05:46:41;18.30;99.90
5960;DHT22;3006;50.956;7.002;2022-09-09T05:49:11;18.30;99.90
5960;DHT22;3006;50.956;7.002;2022-09-09T05:51:40;18.30;99.90
5960;DHT22;3006;50.956;7.002;2022-09-09T05:54:11;18.20;99.90
5960;DHT22;3006;50.956;7.002;2022-09-09T05:56:45;18.30;99.90
5960;DHT22;3006;50.956;7.002;2022-09-09T05:59:18;18.30;99.90
5960;DHT22;3006;50.956;7.002;2022-09-09T06:01:47;18.30;99.90
5960;DHT22;3006;50.956;7.002;2022-09-09T06:04:35;18.30;99.90
5960;DHT22;3006;50.956;7.002;2022-09-09T06:07:04;18.40;99.90
5960;DHT22;3006;50.956;7.002;2022-09-09T06:09:33;18.40;99.90
5960;DHT22;3006;50.956;7.002;2022-09-09T06:12:01;18.40;99.90
5960;DHT22;3006;50.956;7.002;2022-09-09T06:14:33;18.50;99.90
5960;DHT22;3006;50.956;7.002;2022-09-09T06:17:03;18.50;99.90
5960;DHT22;3006;50.956;7.002;2022-09-09T06:19:32;18.60;99.90
5960;DHT22;3006;50.956;7.002;2022-09-09T06:22:00;18.80;99.90
5960;DHT22;3006;50.956;7.002;2022-09-09T06:24:32;18.90;99.90
5960;DHT22;3006;50.956;7.002;2022-09-09T06:27:01;19.00;99.90
5960;DHT22;3006;50.956;7.002;2022-09-09T06:29:33;19.10;99.90
5960;DHT22;3006;50.956;7.002;2022-09-09T06:32:03;19.10;99.90
5960;DHT22;3006;50.956;7.002;2022-09-09T06:34:31;19.20;99.90
5960;DHT22;3006;50.956;7.002;2022-09-09T06:37:00;19.20;99.90
5960;DHT22;3006;50.956;7.002;2022-09-09T06:39:35;19.20;99.90
5960;DHT22;3006;50.956;7.002;2022-09-09T06:42:03;19.30;99.90
5960;DHT22;3006;50.956;7.002;2022-09-09T06:44:43;19.30;99.90
5960;DHT22;3006;50.956;7.002;2022-09-09T06:47:19;19.30;99.90
5960;DHT22;3006;50.956;7.002;2022-09-09T06:49:47;19.20;99.90
5960;DHT22;3006;50.956;7.002;2022-09-09T06:52:15;19.10;99.90
5960;DHT22;3006;50.956;7.002;2022-09-09T06:54:45;19.00;99.90
5960;DHT22;3006;50.956;7.002;2022-09-09T06:57:14;19.00;99.90
5960;DHT22;3006;50.956;7.002;2022-09-09T07:00:04;19.00;99.90
5960;DHT22;3006;50.956;7.002;2022-09-09T07:02:33;19.00;99.90
5960;DHT22;3006;50.956;7.002;2022-09-09T07:05:07;19.10;99.90
5960;DHT22;3006;50.956;7.002;2022-09-09T07:07:36;19.10;99.90
5960;DHT22;3006;50.956;7.002;2022-09-09T07:10:06;19.20;99.90
5960;DHT22;3006;50.956;7.002;2022-09-09T07:12:35;19.20;99.90
5960;DHT22;3006;50.956;7.002;2022-09-09T07:15:05;19.30;99.90
5960;DHT22;3006;50.956;7.002;2022-09-09T07:17:35;19.40;99.90
5960;DHT22;3006;50.956;7.002;2022-09-09T07:20:04;19.40;99.90
5960;DHT22;3006;50.956;7.002;2022-09-09T07:22:33;19.40;99.90
5960;DHT22;3006;50.956;7.002;2022-09-09T07:25:02;19.40;99.90
5960;DHT22;3006;50.956;7.002;2022-09-09T07:27:30;19.40;99.90
5960;DHT22;3006;50.956;7.002;2022-09-09T07:29:58;19.40;99.90
5960;DHT22;3006;50.956;7.002;2022-09-09T07:32:26;19.40;99.90
5960;DHT22;3006;50.956;7.002;2022-09-09T07:34:55;19.40;99.90
5960;DHT22;3006;50.956;7.002;2022-09-09T07:37:26;19.40;99.90
5960;DHT22;3006;50.956;7.002;2022-09-09T07:39:54;19.50;99.90
5960;DHT22;3006;50.956;7.002;2022-09-09T07:42:22;19.50;99.90
5960;DHT22;3006;50.956;7.002;2022-09-09T07:44:50;19.60;99.90
5960;DHT22;3006;50.956;7.002;2022-09-09T07:47:21;19.60;99.90
5960;DHT22;3006;50.956;7.002;2022-09-09T07:49:51;19.60;99.90
5960;DHT22;3006;50.956;7.002;2022-09-09T07:52:26;19.60;99.90
5960;DHT22;3006;50.956;7.002;2022-09-09T07:54:58;19.70;99.90
5960;DHT22;3006;50.956;7.002;2022-09-09T07:57:28;19.80;99.90
5960;DHT22;3006;50.956;7.002;2022-09-09T07:59:57;19.80;99.90
5960;DHT22;3006;50.956;7.002;2022-09-09T08:02:26;19.90;99.90
5960;DHT22;3006;50.956;7.002;2022-09-09T08:04:56;19.90;99.90
5960;DHT22;3006;50.956;7.002;2022-09-09T08:07:25;20.00;99.90
5960;DHT22;3006;50.956;7.002;2022-09-09T08:09:54;19.90;99.90
5960;DHT22;3006;50.956;7.002;2022-09-09T08:12:30;19.90;99.90
5960;DHT22;3006;50.956;7.002;2022-09-09T08:15:03;19.90;99.90
5960;DHT22;3006;50.956;7.002;2022-09-09T08:17:32;19.90;99.90
5960;DHT22;3006;50.956;7.002;2022-09-09T08:20:05;19.90;99.90
5960;DHT22;3006;50.956;7.002;2022-09-09T08:22:35;20.00;99.90
5960;DHT22;3006;50.956;7.002;2022-09-09T08:25:05;20.00;99.90
5960;DHT22;3006;50.956;7.002;2022-09-09T08:27:36;19.90;99.90
5960;DHT22;3006;50.956;7.002;2022-09-09T08:30:06;19.90;99.90
5960;DHT22;3006;50.956;7.002;2022-09-09T08:32:34;20.00;99.90
5960;DHT22;3006;50.956;7.002;2022-09-09T08:35:04;20.00;99.90
5960;DHT22;3006;50.956;7.002;2022-09-09T08:37:34;20.10;99.90
5960;DHT22;3006;50.956;7.002;2022-09-09T08:40:04;20.20;99.90
5960;DHT22;3006;50.956;7.002;2022-09-09T08:42:37;20.30;99.90
5960;DHT22;3006;50.956;7.002;2022-09-09T08:45:18;20.40;99.90
5960;DHT22;3006;50.956;7.002;2022-09-09T08:47:58;20.50;99.90
5960;DHT22;3006;50.956;7.002;2022-09-09T08:50:32;20.70;99.90
5960;DHT22;3006;50.956;7.002;2022-09-09T08:53:13;20.80;99.90
5960;DHT22;3006;50.956;7.002;2022-09-09T08:55:48;20.80;99.20
5960;DHT22;3006;50.956;7.002;2022-09-09T08:58:22;20.70;99.10
5960;DHT22;3006;50.956;7.002;2022-09-09T09:01:15;20.60;99.50
5960;DHT22;3006;50.956;7.002;2022-09-09T09:03:54;20.60;98.90
5960;DHT22;3006;50.956;7.002;2022-09-09T09:06:38;20.50;98.90
5960;DHT22;3006;50.956;7.002;2022-09-09T09:09:17;20.60;99.10
5960;DHT22;3006;50.956;7.002;2022-09-09T09:11:53;20.70;99.00
5960;DHT22;3006;50.956;7.002;2022-09-09T09:14:24;20.80;99.00
5960;DHT22;3006;50.956;7.002;2022-09-09T09:17:01;20.90;98.40
5960;DHT22;3006;50.956;7.002;2022-09-09T09:19:33;21.00;98.30
5960;DHT22;3006;50.956;7.002;2022-09-09T09:22:06;21.10;98.10
5960;DHT22;3006;50.956;7.002;2022-09-09T09:24:44;21.10;97.70
5960;DHT22;3006;50.956;7.002;2022-09-09T09:27:18;21.10;97.50
5960;DHT22;3006;50.956;7.002;2022-09-09T09:29:51;21.10;97.60
5960;DHT22;3006;50.956;7.002;2022-09-09T09:32:50;20.90;97.90
5960;DHT22;3006;50.956;7.002;2022-09-09T09:35:20;20.80;98.40
5960;DHT22;3006;50.956;7.002;2022-09-09T09:37:49;20.70;98.50
5960;DHT22;3006;50.956;7.002;2022-09-09T09:40:48;20.60;98.40
5960;DHT22;3006;50.956;7.002;2022-09-09T09:43:21;20.60;98.70
5960;DHT22;3006;50.956;7.002;2022-09-09T09:45:52;20.60;98.70
5960;DHT22;3006;50.956;7.002;2022-09-09T09:48:40;20.60;98.60
5960;DHT22;3006;50.956;7.002;2022-09-09T09:51:09;20.70;98.50
5960;DHT22;3006;50.956;7.002;2022-09-09T09:53:41;20.80;98.50
5960;DHT22;3006;50.956;7.002;2022-09-09T09:56:12;20.70;98.70
5960;DHT22;3006;50.956;7.002;2022-09-09T09:58:51;20.70;98.80
5960;DHT22;3006;50.956;7.002;2022-09-09T10:01:28;20.60;98.80
5960;DHT22;3006;50.956;7.002;2022-09-09T10:04:00;20.70;98.70
5960;DHT22;3006;50.956;7.002;2022-09-09T10:06:30;20.70;98.60
5960;DHT22;3006;50.956;7.002;2022-09-09T10:08:59;20.80;98.70
5960;DHT22;3006;50.956;7.002;2022-09-09T10:11:41;20.90;98.70
5960;DHT22;3006;50.956;7.002;2022-09-09T10:14:19;21.00;98.70
5960;DHT22;3006;50.956;7.002;2022-09-09T10:17:01;21.10;98.30
5960;DHT22;3006;50.956;7.002;2022-09-09T10:19:34;21.10;97.80
5960;DHT22;3006;50.956;7.002;2022-09-09T10:22:09;21.00;98.10
5960;DHT22;3006;50.956;7.002;2022-09-09T10:27:55;21.10;98.40
5960;DHT22;3006;50.956;7.002;2022-09-09T10:30:38;21.10;98.20
5960;DHT22;3006;50.956;7.002;2022-09-09T10:33:16;21.10;97.70
5960;DHT22;3006;50.956;7.002;2022-09-09T10:36:02;20.90;97.40
5960;DHT22;3006;50.956;7.002;2022-09-09T10:38:40;20.90;97.90
5960;DHT22;3006;50.956;7.002;2022-09-09T10:41:15;20.90;97.90
5960;DHT22;3006;50.956;7.002;2022-09-09T10:44:10;20.90;97.90
5960;DHT22;3006;50.956;7.002;2022-09-09T10:46:52;21.10;97.80
5960;DHT22;3006;50.956;7.002;2022-09-09T10:49:32;21.20;97.90
5960;DHT22;3006;50.956;7.002;2022-09-09T10:52:11;21.30;97.50
5960;DHT22;3006;50.956;7.002;2022-09-09T10:54:51;21.40;97.40
5960;DHT22;3006;50.956;7.002;2022-09-09T10:57:27;21.50;97.10
5960;DHT22;3006;50.956;7.002;2022-09-09T11:00:02;21.50;97.20
5960;DHT22;3006;50.956;7.002;2022-09-09T11:02:34;21.40;96.80
5960;DHT22;3006;50.956;7.002;2022-09-09T11:05:05;21.40;96.60
5960;DHT22;3006;50.956;7.002;2022-09-09T11:07:39;21.40;96.70
5960;DHT22;3006;50.956;7.002;2022-09-09T11:10:18;21.50;96.90
5960;DHT22;3006;50.956;7.002;2022-09-09T11:12:53;21.60;96.80
5960;DHT22;3006;50.956;7.002;2022-09-09T11:15:26;21.70;96.80
5960;DHT22;3006;50.956;7.002;2022-09-09T11:18:01;21.80;96.50
5960;DHT22;3006;50.956;7.002;2022-09-09T11:20:29;21.80;96.60
5960;DHT22;3006;50.956;7.002;2022-09-09T11:23:01;21.90;96.40
5960;DHT22;3006;50.956;7.002;2022-09-09T11:25:32;21.90;96.60
5960;DHT22;3006;50.956;7.002;2022-09-09T11:28:20;21.80;96.40
5960;DHT22;3006;50.956;7.002;2022-09-09T11:31:03;21.80;96.30
5960;DHT22;3006;50.956;7.002;2022-09-09T11:33:59;21.70;96.20
5960;DHT22;3006;50.956;7.002;2022-09-09T11:36:53;21.60;96.30
5960;DHT22;3006;50.956;7.002;2022-09-09T11:39:38;21.60;96.30
5960;DHT22;3006;50.956;7.002;2022-09-09T11:42:17;21.60;96.20
5960;DHT22;3006;50.956;7.002;2022-09-09T11:44:46;21.60;96.60
5960;DHT22;3006;50.956;7.002;2022-09-09T11:47:23;21.60;96.40
5960;DHT22;3006;50.956;7.002;2022-09-09T11:50:08;21.70;96.10
5960;DHT22;3006;50.956;7.002;2022-09-09T11:52:38;21.70;95.80
5960;DHT22;3006;50.956;7.002;2022-09-09T11:55:09;21.70;96.10
5960;DHT22;3006;50.956;7.002;2022-09-09T11:57:39;21.80;96.10
5960;DHT22;3006;50.956;7.002;2022-09-09T12:00:31;21.70;95.50
5960;DHT22;3006;50.956;7.002;2022-09-09T12:03:00;21.70;95.70
5960;DHT22;3006;50.956;7.002;2022-09-09T12:05:38;21.70;95.70
5960;DHT22;3006;50.956;7.002;2022-09-09T12:08:09;21.70;95.40
5960;DHT22;3006;50.956;7.002;2022-09-09T12:10:40;21.60;95.50
5960;DHT22;3006;50.956;7.002;2022-09-09T12:13:15;21.60;95.60
5960;DHT22;3006;50.956;7.002;2022-09-09T12:15:48;21.50;95.70
5960;DHT22;3006;50.956;7.002;2022-09-09T12:18:22;21.40;95.60
5960;DHT22;3006;50.956;7.002;2022-09-09T12:20:59;21.40;95.70
5960;DHT22;3006;50.956;7.002;2022-09-09T12:23:44;21.30;95.80
5960;DHT22;3006;50.956;7.002;2022-09-09T12:26:27;21.40;95.70
5960;DHT22;3006;50.956;7.002;2022-09-09T12:29:08;21.50;95.70
5960;DHT22;3006;50.956;7.002;2022-09-09T12:31:43;21.60;95.40
5960;DHT22;3006;50.956;7.002;2022-09-09T12:34:15;21.70;95.20
5960;DHT22;3006;50.956;7.002;2022-09-09T12:36:51;21.70;95.20
5960;DHT22;3006;50.956;7.002;2022-09-09T12:39:28;21.80;95.00
5960;DHT22;3006;50.956;7.002;2022-09-09T12:41:58;21.80;95.10
5960;DHT22;3006;50.956;7.002;2022-09-09T12:44:26;21.80;95.20
5960;DHT22;3006;50.956;7.002;2022-09-09T12:46:57;21.80;95.20
5960;DHT22;3006;50.956;7.002;2022-09-09T12:49:30;21.70;95.30
5960;DHT22;3006;50.956;7.002;2022-09-09T12:52:03;21.60;95.30
5960;DHT22;3006;50.956;7.002;2022-09-09T12:54:35;21.50;95.90
5960;DHT22;3006;50.956;7.002;2022-09-09T12:57:04;21.60;95.80
5960;DHT22;3006;50.956;7.002;2022-09-09T12:59:38;21.60;95.90
5960;DHT22;3006;50.956;7.002;2022-09-09T13:02:18;21.70;95.70
5960;DHT22;3006;50.956;7.002;2022-09-09T13:04:47;21.80;95.80
5960;DHT22;3006;50.956;7.002;2022-09-09T13:07:20;22.10;95.70
5960;DHT22;3006;50.956;7.002;2022-09-09T13:09:49;22.40;95.20
5960;DHT22;3006;50.956;7.002;2022-09-09T13:12:19;22.50;94.90
5960;DHT22;3006;50.956;7.002;2022-09-09T13:14:52;22.40;94.90
5960;DHT22;3006;50.956;7.002;2022-09-09T13:17:23;22.40;95.00
5960;DHT22;3006;50.956;7.002;2022-09-09T13:19:52;22.30;95.20
5960;DHT22;3006;50.956;7.002;2022-09-09T13:22:31;22.30;95.00
5960;DHT22;3006;50.956;7.002;2022-09-09T13:25:03;22.30;95.30
5960;DHT22;3006;50.956;7.002;2022-09-09T13:27:33;22.30;95.30
5960;DHT22;3006;50.956;7.002;2022-09-09T13:32:45;22.40;95.00
5960;DHT22;3006;50.956;7.002;2022-09-09T13:35:23;22.40;95.00
5960;DHT22;3006;50.956;7.002;2022-09-09T13:37:53;22.40;94.70
5960;DHT22;3006;50.956;7.002;2022-09-09T13:40:22;22.40;94.80
5960;DHT22;3006;50.956;7.002;2022-09-09T13:42:53;22.30;95.10
5960;DHT22;3006;50.956;7.002;2022-09-09T13:45:24;22.30;95.20
5960;DHT22;3006;50.956;7.002;2022-09-09T13:47:54;22.40;95.30
5960;DHT22;3006;50.956;7.002;2022-09-09T13:50:25;22.40;95.40
5960;DHT22;3006;50.956;7.002;2022-09-09T13:52:56;22.40;95.50
5960;DHT22;3006;50.956;7.002;2022-09-09T13:55:26;22.90;95.40
5960;DHT22;3006;50.956;7.002;2022-09-09T13:57:56;23.70;94.60
5960;DHT22;3006;50.956;7.002;2022-09-09T14:00:24;24.20;94.10
5960;DHT22;3006;50.956;7.002;2022-09-09T14:02:53;24.40;93.60
5960;DHT22;3006;50.956;7.002;2022-09-09T14:05:22;24.80;93.20
5960;DHT22;3006;50.956;7.002;2022-09-09T14:07:50;25.00;93.20
5960;DHT22;3006;50.956;7.002;2022-09-09T14:10:20;24.70;92.60
5960;DHT22;3006;50.956;7.002;2022-09-09T14:12:49;24.00;93.30
5960;DHT22;3006;50.956;7.002;2022-09-09T14:15:17;23.50;94.00
5960;DHT22;3006;50.956;7.002;2022-09-09T14:17:45;23.10;94.50
5960;DHT22;3006;50.956;7.002;2022-09-09T14:20:15;22.70;95.00
5960;DHT22;3006;50.956;7.002;2022-09-09T14:22:44;22.50;95.30
5960;DHT22;3006;50.956;7.002;2022-09-09T14:25:12;22.40;95.50
5960;DHT22;3006;50.956;7.002;2022-09-09T14:27:42;22.30;95.70
5960;DHT22;3006;50.956;7.002;2022-09-09T14:30:11;22.20;95.90
5960;DHT22;3006;50.956;7.002;2022-09-09T14:32:39;22.10;96.00
5960;DHT22;3006;50.956;7.002;2022-09-09T14:35:07;22.00;96.10
5960;DHT22;3006;50.956;7.002;2022-09-09T14:37:35;21.80;96.30
5960;DHT22;3006;50.956;7.002;2022-09-09T14:40:06;21.70;96.50
5960;DHT22;3006;50.956;7.002;2022-09-09T14:42:35;21.70;96.80
5960;DHT22;3006;50.956;7.002;2022-09-09T14:45:05;21.60;97.20
5960;DHT22;3006;50.956;7.002;2022-09-09T14:47:34;21.50;99.80
5960;DHT22;3006;50.956;7.002;2022-09-09T14:50:04;21.30;99.90
5960;DHT22;3006;50.956;7.002;2022-09-09T14:52:32;20.90;99.90
5960;DHT22;3006;50.956;7.002;2022-09-09T14:55:00;20.60;99.90
5960;DHT22;3006;50.956;7.002;2022-09-09T14:57:28;20.40;99.90
5960;DHT22;3006;50.956;7.002;2022-09-09T14:59:56;20.30;99.90
5960;DHT22;3006;50.956;7.002;2022-09-09T15:02:26;20.20;99.90
5960;DHT22;3006;50.956;7.002;2022-09-09T15:04:54;20.30;99.90
5960;DHT22;3006;50.956;7.002;2022-09-09T15:07:24;20.30;99.90
5960;DHT22;3006;50.956;7.002;2022-09-09T15:09:52;20.30;99.90
5960;DHT22;3006;50.956;7.002;2022-09-09T15:12:21;20.50;99.90
5960;DHT22;3006;50.956;7.002;2022-09-09T15:14:49;20.70;99.90
5960;DHT22;3006;50.956;7.002;2022-09-09T15:17:17;20.80;99.90
5960;DHT22;3006;50.956;7.002;2022-09-09T15:19:46;20.70;99.90
5960;DHT22;3006;50.956;7.002;2022-09-09T15:22:14;20.70;99.90
5960;DHT22;3006;50.956;7.002;2022-09-09T15:24:42;20.70;99.90
5960;DHT22;3006;50.956;7.002;2022-09-09T15:27:10;20.70;99.90
5960;DHT22;3006;50.956;7.002;2022-09-09T15:29:38;20.80;99.90
5960;DHT22;3006;50.956;7.002;2022-09-09T15:32:06;20.70;99.90
5960;DHT22;3006;50.956;7.002;2022-09-09T15:34:34;20.70;99.90
5960;DHT22;3006;50.956;7.002;2022-09-09T15:37:04;20.60;99.90
5960;DHT22;3006;50.956;7.002;2022-09-09T15:39:33;20.60;99.90
5960;DHT22;3006;50.956;7.002;2022-09-09T15:42:04;20.60;99.90
5960;DHT22;3006;50.956;7.002;2022-09-09T15:44:40;20.50;99.90
5960;DHT22;3006;50.956;7.002;2022-09-09T15:47:11;20.50;99.90
5960;DHT22;3006;50.956;7.002;2022-09-09T15:49:40;20.50;99.90
5960;DHT22;3006;50.956;7.002;2022-09-09T15:52:10;20.50;99.90
5960;DHT22;3006;50.956;7.002;2022-09-09T15:54:38;20.50;99.90
5960;DHT22;3006;50.956;7.002;2022-09-09T15:57:07;20.40;99.90
5960;DHT22;3006;50.956;7.002;2022-09-09T15:59:36;20.50;99.90
5960;DHT22;3006;50.956;7.002;2022-09-09T16:02:04;20.40;99.90
5960;DHT22;3006;50.956;7.002;2022-09-09T16:04:33;20.40;99.90
5960;DHT22;3006;50.956;7.002;2022-09-09T16:07:03;20.30;99.90
5960;DHT22;3006;50.956;7.002;2022-09-09T16:09:33;20.20;99.90
5960;DHT22;3006;50.956;7.002;2022-09-09T16:12:02;20.00;99.90
5960;DHT22;3006;50.956;7.002;2022-09-09T16:14:33;20.00;99.90
5960;DHT22;3006;50.956;7.002;2022-09-09T16:17:03;20.00;99.90
5960;DHT22;3006;50.956;7.002;2022-09-09T16:19:32;20.00;99.90
5960;DHT22;3006;50.956;7.002;2022-09-09T16:22:01;20.00;99.90
5960;DHT22;3006;50.956;7.002;2022-09-09T16:24:30;19.90;99.90
5960;DHT22;3006;50.956;7.002;2022-09-09T16:27:00;19.80;99.90
5960;DHT22;3006;50.956;7.002;2022-09-09T16:29:28;19.70;99.90
5960;DHT22;3006;50.956;7.002;2022-09-09T16:31:56;19.70;99.90
5960;DHT22;3006;50.956;7.002;2022-09-09T16:34:30;19.70;99.90
5960;DHT22;3006;50.956;7.002;2022-09-09T16:36:59;19.70;99.90
5960;DHT22;3006;50.956;7.002;2022-09-09T16:39:28;19.60;99.90
5960;DHT22;3006;50.956;7.002;2022-09-09T16:41:56;19.70;99.90
5960;DHT22;3006;50.956;7.002;2022-09-09T16:44:26;19.70;99.90